Decoded Metar for SARF (FORMOSA in ARGENTINA) (IATA:FMA) | Meteo·Mobile Aviation Weather
aviador You're here:

SARF Decoded Metar

FORMOSA in ARGENTINA
Report Time2018-09-26 04:00:00
UTC Time2018-09-26 04:46:16
Flight Rules vfr VFR
Wind180° at 04 kt
W.Decomp.*RWY 22: 3.5 kt HW 1.9 kt LCW
W.Rank180° ranks 1
Current wind is below 180° avg. (7.6)
Visibility9999 m
Phenomena:N/A
Clouds:Few 006 Hf
Overcast 100 Hf
Ceiling10,000 ft
Temp20°C (ISA +5)
Dew Point20°C (100% RH)
QNH1009 hPa
Density Alt1,273 ft
Elevation197 ft
Report Wrong Elevation
Raw Report
SARF 260400Z 18004KT 9999 FEW006 OVC100 20/20 Q1009=

Extra information for SARF:More info

Metar Taf Metar & Taf Last 4 Metars F.Rules Stats Wind Profile Meteogram Temp Stats Airport Information Weather charts Add Link Nearby VenuesMetar ALERT Operation Metar Decoded Social comments